sensor_id;sensor_type;location;lat;lon;timestamp;P1;durP1;ratioP1;P2;durP2;ratioP2
55300;SDS011;58302;51.446;-2.000;2022-08-03T00:00:40;5.65;;;2.50;;
55300;SDS011;58302;51.446;-2.000;2022-08-03T00:03:06;5.55;;;2.58;;
55300;SDS011;58302;51.446;-2.000;2022-08-03T00:05:32;11.00;;;2.20;;
55300;SDS011;58302;51.446;-2.000;2022-08-03T00:07:59;4.03;;;1.98;;
55300;SDS011;58302;51.446;-2.000;2022-08-03T00:10:25;5.05;;;2.10;;
55300;SDS011;58302;51.446;-2.000;2022-08-03T00:12:51;6.85;;;2.42;;
55300;SDS011;58302;51.446;-2.000;2022-08-03T00:15:18;6.93;;;2.70;;
55300;SDS011;58302;51.446;-2.000;2022-08-03T00:17:44;4.32;;;2.17;;
55300;SDS011;58302;51.446;-2.000;2022-08-03T00:20:10;6.40;;;2.33;;
55300;SDS011;58302;51.446;-2.000;2022-08-03T00:22:37;3.30;;;1.90;;
55300;SDS011;58302;51.446;-2.000;2022-08-03T00:25:03;5.63;;;2.20;;
55300;SDS011;58302;51.446;-2.000;2022-08-03T00:27:29;3.72;;;1.83;;
55300;SDS011;58302;51.446;-2.000;2022-08-03T00:29:55;6.28;;;2.40;;
55300;SDS011;58302;51.446;-2.000;2022-08-03T00:32:21;2.97;;;1.90;;
55300;SDS011;58302;51.446;-2.000;2022-08-03T00:40:30;4.35;;;2.13;;
55300;SDS011;58302;51.446;-2.000;2022-08-03T00:42:58;4.22;;;1.85;;
55300;SDS011;58302;51.446;-2.000;2022-08-03T00:45:26;4.05;;;1.85;;
55300;SDS011;58302;51.446;-2.000;2022-08-03T00:48:10;5.10;;;2.05;;
55300;SDS011;58302;51.446;-2.000;2022-08-03T00:50:38;4.13;;;2.00;;
55300;SDS011;58302;51.446;-2.000;2022-08-03T00:53:06;5.55;;;3.20;;
55300;SDS011;58302;51.446;-2.000;2022-08-03T00:55:32;4.70;;;1.88;;
55300;SDS011;58302;51.446;-2.000;2022-08-03T00:58:01;5.32;;;2.40;;
55300;SDS011;58302;51.446;-2.000;2022-08-03T01:00:31;6.10;;;2.42;;
55300;SDS011;58302;51.446;-2.000;2022-08-03T01:02:58;4.18;;;2.10;;
55300;SDS011;58302;51.446;-2.000;2022-08-03T01:05:24;4.65;;;2.20;;
55300;SDS011;58302;51.446;-2.000;2022-08-03T01:07:59;3.92;;;2.40;;
55300;SDS011;58302;51.446;-2.000;2022-08-03T01:16:12;4.75;;;2.78;;
55300;SDS011;58302;51.446;-2.000;2022-08-03T01:18:51;4.70;;;2.03;;
55300;SDS011;58302;51.446;-2.000;2022-08-03T01:27:22;6.47;;;2.85;;
55300;SDS011;58302;51.446;-2.000;2022-08-03T01:32:35;6.32;;;2.20;;
55300;SDS011;58302;51.446;-2.000;2022-08-03T01:35:36;6.85;;;2.58;;
55300;SDS011;58302;51.446;-2.000;2022-08-03T01:38:14;4.18;;;2.22;;
55300;SDS011;58302;51.446;-2.000;2022-08-03T01:40:51;5.55;;;2.38;;
55300;SDS011;58302;51.446;-2.000;2022-08-03T01:43:20;7.43;;;2.58;;
55300;SDS011;58302;51.446;-2.000;2022-08-03T01:45:49;5.95;;;2.30;;
55300;SDS011;58302;51.446;-2.000;2022-08-03T01:48:16;6.60;;;2.13;;
55300;SDS011;58302;51.446;-2.000;2022-08-03T01:50:44;7.68;;;2.83;;
55300;SDS011;58302;51.446;-2.000;2022-08-03T01:53:15;8.32;;;2.42;;
55300;SDS011;58302;51.446;-2.000;2022-08-03T01:55:44;5.53;;;2.67;;
55300;SDS011;58302;51.446;-2.000;2022-08-03T01:58:14;6.05;;;2.60;;
55300;SDS011;58302;51.446;-2.000;2022-08-03T02:00:43;3.53;;;2.00;;
55300;SDS011;58302;51.446;-2.000;2022-08-03T02:03:10;4.18;;;3.08;;
55300;SDS011;58302;51.446;-2.000;2022-08-03T02:05:38;4.32;;;2.40;;
55300;SDS011;58302;51.446;-2.000;2022-08-03T02:08:06;4.57;;;2.72;;
55300;SDS011;58302;51.446;-2.000;2022-08-03T02:10:35;4.45;;;2.28;;
55300;SDS011;58302;51.446;-2.000;2022-08-03T02:13:03;3.50;;;2.08;;
55300;SDS011;58302;51.446;-2.000;2022-08-03T02:15:31;4.72;;;2.20;;
55300;SDS011;58302;51.446;-2.000;2022-08-03T02:17:59;6.82;;;2.15;;
55300;SDS011;58302;51.446;-2.000;2022-08-03T02:20:27;5.45;;;2.10;;
55300;SDS011;58302;51.446;-2.000;2022-08-03T02:22:57;5.57;;;2.10;;
55300;SDS011;58302;51.446;-2.000;2022-08-03T02:25:23;3.30;;;1.80;;
55300;SDS011;58302;51.446;-2.000;2022-08-03T02:27:50;3.97;;;1.90;;
55300;SDS011;58302;51.446;-2.000;2022-08-03T02:30:19;4.53;;;1.70;;
55300;SDS011;58302;51.446;-2.000;2022-08-03T02:32:53;5.50;;;2.10;;
55300;SDS011;58302;51.446;-2.000;2022-08-03T02:35:22;4.07;;;2.47;;
55300;SDS011;58302;51.446;-2.000;2022-08-03T02:37:51;6.20;;;2.40;;
55300;SDS011;58302;51.446;-2.000;2022-08-03T02:40:20;5.90;;;1.92;;
55300;SDS011;58302;51.446;-2.000;2022-08-03T02:42:50;3.38;;;2.08;;
55300;SDS011;58302;51.446;-2.000;2022-08-03T02:45:20;5.30;;;2.20;;
55300;SDS011;58302;51.446;-2.000;2022-08-03T02:47:48;6.60;;;2.13;;
55300;SDS011;58302;51.446;-2.000;2022-08-03T02:50:20;5.50;;;1.95;;
55300;SDS011;58302;51.446;-2.000;2022-08-03T02:52:48;3.33;;;1.70;;
55300;SDS011;58302;51.446;-2.000;2022-08-03T02:55:16;8.18;;;3.45;;
55300;SDS011;58302;51.446;-2.000;2022-08-03T02:57:44;3.72;;;2.03;;
55300;SDS011;58302;51.446;-2.000;2022-08-03T03:00:12;5.78;;;2.15;;
55300;SDS011;58302;51.446;-2.000;2022-08-03T03:02:40;5.50;;;1.98;;
55300;SDS011;58302;51.446;-2.000;2022-08-03T03:05:07;1.98;;;1.70;;
55300;SDS011;58302;51.446;-2.000;2022-08-03T03:07:35;2.42;;;1.58;;
55300;SDS011;58302;51.446;-2.000;2022-08-03T03:10:03;3.97;;;1.63;;
55300;SDS011;58302;51.446;-2.000;2022-08-03T03:12:30;2.85;;;2.20;;
55300;SDS011;58302;51.446;-2.000;2022-08-03T03:14:57;4.15;;;2.28;;
55300;SDS011;58302;51.446;-2.000;2022-08-03T03:17:23;3.55;;;2.00;;
55300;SDS011;58302;51.446;-2.000;2022-08-03T03:19:52;2.33;;;1.90;;
55300;SDS011;58302;51.446;-2.000;2022-08-03T03:22:18;6.35;;;2.20;;
55300;SDS011;58302;51.446;-2.000;2022-08-03T03:24:46;3.38;;;1.75;;
55300;SDS011;58302;51.446;-2.000;2022-08-03T03:27:14;3.47;;;1.67;;
55300;SDS011;58302;51.446;-2.000;2022-08-03T03:29:40;2.80;;;1.60;;
55300;SDS011;58302;51.446;-2.000;2022-08-03T03:32:06;14.25;;;2.65;;
55300;SDS011;58302;51.446;-2.000;2022-08-03T03:34:32;5.57;;;2.08;;
55300;SDS011;58302;51.446;-2.000;2022-08-03T03:36:59;4.05;;;2.38;;
55300;SDS011;58302;51.446;-2.000;2022-08-03T03:39:26;3.00;;;1.70;;
55300;SDS011;58302;51.446;-2.000;2022-08-03T03:41:52;5.13;;;2.13;;
55300;SDS011;58302;51.446;-2.000;2022-08-03T03:44:18;2.40;;;1.90;;
55300;SDS011;58302;51.446;-2.000;2022-08-03T03:46:44;3.42;;;1.88;;
55300;SDS011;58302;51.446;-2.000;2022-08-03T03:49:11;2.90;;;1.42;;
55300;SDS011;58302;51.446;-2.000;2022-08-03T03:51:37;3.05;;;1.55;;
55300;SDS011;58302;51.446;-2.000;2022-08-03T03:54:03;1.98;;;1.52;;
55300;SDS011;58302;51.446;-2.000;2022-08-03T03:56:31;4.50;;;1.85;;
55300;SDS011;58302;51.446;-2.000;2022-08-03T03:58:57;1.40;;;1.30;;
55300;SDS011;58302;51.446;-2.000;2022-08-03T04:01:24;2.30;;;1.30;;
55300;SDS011;58302;51.446;-2.000;2022-08-03T04:03:50;2.88;;;1.40;;
55300;SDS011;58302;51.446;-2.000;2022-08-03T04:06:16;2.15;;;1.55;;
55300;SDS011;58302;51.446;-2.000;2022-08-03T04:09:01;4.18;;;1.40;;
55300;SDS011;58302;51.446;-2.000;2022-08-03T04:11:48;3.85;;;2.28;;
55300;SDS011;58302;51.446;-2.000;2022-08-03T04:14:18;4.30;;;1.70;;
55300;SDS011;58302;51.446;-2.000;2022-08-03T04:17:08;2.33;;;1.20;;
55300;SDS011;58302;51.446;-2.000;2022-08-03T04:19:39;5.97;;;1.42;;
55300;SDS011;58302;51.446;-2.000;2022-08-03T04:22:10;2.63;;;1.70;;
55300;SDS011;58302;51.446;-2.000;2022-08-03T04:27:42;2.10;;;1.48;;
55300;SDS011;58302;51.446;-2.000;2022-08-03T04:30:11;3.15;;;1.40;;
55300;SDS011;58302;51.446;-2.000;2022-08-03T04:32:37;3.08;;;1.40;;
55300;SDS011;58302;51.446;-2.000;2022-08-03T04:35:04;2.10;;;1.63;;
55300;SDS011;58302;51.446;-2.000;2022-08-03T04:37:37;1.50;;;1.25;;
55300;SDS011;58302;51.446;-2.000;2022-08-03T04:40:08;6.60;;;2.10;;
55300;SDS011;58302;51.446;-2.000;2022-08-03T04:42:37;2.58;;;1.27;;
55300;SDS011;58302;51.446;-2.000;2022-08-03T04:45:05;2.90;;;1.45;;
55300;SDS011;58302;51.446;-2.000;2022-08-03T04:47:32;3.47;;;1.40;;
55300;SDS011;58302;51.446;-2.000;2022-08-03T04:49:59;2.50;;;1.50;;
55300;SDS011;58302;51.446;-2.000;2022-08-03T04:52:27;3.47;;;1.73;;
55300;SDS011;58302;51.446;-2.000;2022-08-03T04:54:53;2.72;;;1.70;;
55300;SDS011;58302;51.446;-2.000;2022-08-03T04:57:21;4.18;;;1.30;;
55300;SDS011;58302;51.446;-2.000;2022-08-03T04:59:47;2.30;;;1.40;;
55300;SDS011;58302;51.446;-2.000;2022-08-03T05:02:17;5.13;;;1.40;;
55300;SDS011;58302;51.446;-2.000;2022-08-03T05:04:43;2.65;;;1.30;;
55300;SDS011;58302;51.446;-2.000;2022-08-03T05:07:11;3.65;;;1.35;;
55300;SDS011;58302;51.446;-2.000;2022-08-03T05:09:38;3.45;;;1.63;;
55300;SDS011;58302;51.446;-2.000;2022-08-03T05:12:04;4.00;;;1.45;;
55300;SDS011;58302;51.446;-2.000;2022-08-03T05:14:34;3.33;;;1.40;;
55300;SDS011;58302;51.446;-2.000;2022-08-03T05:17:05;2.50;;;1.20;;
55300;SDS011;58302;51.446;-2.000;2022-08-03T05:19:31;1.88;;;1.30;;
55300;SDS011;58302;51.446;-2.000;2022-08-03T05:21:57;6.32;;;1.58;;
55300;SDS011;58302;51.446;-2.000;2022-08-03T05:24:23;1.50;;;1.30;;
55300;SDS011;58302;51.446;-2.000;2022-08-03T05:26:49;3.45;;;1.73;;
55300;SDS011;58302;51.446;-2.000;2022-08-03T05:29:15;5.03;;;1.48;;
55300;SDS011;58302;51.446;-2.000;2022-08-03T05:31:41;2.80;;;1.00;;
55300;SDS011;58302;51.446;-2.000;2022-08-03T05:34:07;1.40;;;1.05;;
55300;SDS011;58302;51.446;-2.000;2022-08-03T05:36:33;3.80;;;1.50;;
55300;SDS011;58302;51.446;-2.000;2022-08-03T05:38:59;2.83;;;1.33;;
55300;SDS011;58302;51.446;-2.000;2022-08-03T05:41:25;1.33;;;0.82;;
55300;SDS011;58302;51.446;-2.000;2022-08-03T05:43:51;3.90;;;1.52;;
55300;SDS011;58302;51.446;-2.000;2022-08-03T05:46:18;1.45;;;1.15;;
55300;SDS011;58302;51.446;-2.000;2022-08-03T05:48:45;3.20;;;0.90;;
55300;SDS011;58302;51.446;-2.000;2022-08-03T05:51:11;4.07;;;1.30;;
55300;SDS011;58302;51.446;-2.000;2022-08-03T05:53:38;2.63;;;1.40;;
55300;SDS011;58302;51.446;-2.000;2022-08-03T05:56:05;2.22;;;1.08;;
55300;SDS011;58302;51.446;-2.000;2022-08-03T05:58:31;1.95;;;1.10;;
55300;SDS011;58302;51.446;-2.000;2022-08-03T06:00:57;3.00;;;1.75;;
55300;SDS011;58302;51.446;-2.000;2022-08-03T06:03:23;3.85;;;1.17;;
55300;SDS011;58302;51.446;-2.000;2022-08-03T06:05:49;2.10;;;1.02;;
55300;SDS011;58302;51.446;-2.000;2022-08-03T06:08:15;3.00;;;1.60;;
55300;SDS011;58302;51.446;-2.000;2022-08-03T06:10:41;1.33;;;0.80;;
55300;SDS011;58302;51.446;-2.000;2022-08-03T06:13:07;2.22;;;1.00;;
55300;SDS011;58302;51.446;-2.000;2022-08-03T06:15:36;4.28;;;1.48;;
55300;SDS011;58302;51.446;-2.000;2022-08-03T06:18:02;1.67;;;1.10;;
55300;SDS011;58302;51.446;-2.000;2022-08-03T06:20:28;1.83;;;1.33;;
55300;SDS011;58302;51.446;-2.000;2022-08-03T06:22:54;1.50;;;1.10;;
55300;SDS011;58302;51.446;-2.000;2022-08-03T06:25:20;1.85;;;1.35;;
55300;SDS011;58302;51.446;-2.000;2022-08-03T06:27:47;2.15;;;1.58;;
55300;SDS011;58302;51.446;-2.000;2022-08-03T06:30:13;1.10;;;1.00;;
55300;SDS011;58302;51.446;-2.000;2022-08-03T06:32:39;3.83;;;1.42;;
55300;SDS011;58302;51.446;-2.000;2022-08-03T06:35:06;3.05;;;1.02;;
55300;SDS011;58302;51.446;-2.000;2022-08-03T06:40:13;1.58;;;0.82;;
55300;SDS011;58302;51.446;-2.000;2022-08-03T06:42:41;0.95;;;0.60;;
55300;SDS011;58302;51.446;-2.000;2022-08-03T06:45:08;1.77;;;1.05;;
55300;SDS011;58302;51.446;-2.000;2022-08-03T06:47:38;2.08;;;0.90;;
55300;SDS011;58302;51.446;-2.000;2022-08-03T06:50:06;2.25;;;0.80;;
55300;SDS011;58302;51.446;-2.000;2022-08-03T06:52:33;0.77;;;0.73;;
55300;SDS011;58302;51.446;-2.000;2022-08-03T06:54:59;1.27;;;0.70;;
55300;SDS011;58302;51.446;-2.000;2022-08-03T06:57:26;0.60;;;0.60;;
55300;SDS011;58302;51.446;-2.000;2022-08-03T06:59:52;0.80;;;0.60;;
55300;SDS011;58302;51.446;-2.000;2022-08-03T07:02:18;0.95;;;0.50;;
55300;SDS011;58302;51.446;-2.000;2022-08-03T07:04:45;0.70;;;0.50;;
55300;SDS011;58302;51.446;-2.000;2022-08-03T07:07:12;0.70;;;0.55;;
55300;SDS011;58302;51.446;-2.000;2022-08-03T07:09:38;0.77;;;0.45;;
55300;SDS011;58302;51.446;-2.000;2022-08-03T07:12:04;0.63;;;0.52;;
55300;SDS011;58302;51.446;-2.000;2022-08-03T07:14:31;0.40;;;0.30;;
55300;SDS011;58302;51.446;-2.000;2022-08-03T07:16:57;1.73;;;0.70;;
55300;SDS011;58302;51.446;-2.000;2022-08-03T07:19:23;0.50;;;0.50;;
55300;SDS011;58302;51.446;-2.000;2022-08-03T07:21:49;2.45;;;0.70;;
55300;SDS011;58302;51.446;-2.000;2022-08-03T07:24:14;0.90;;;0.57;;
55300;SDS011;58302;51.446;-2.000;2022-08-03T07:26:40;1.55;;;0.60;;
55300;SDS011;58302;51.446;-2.000;2022-08-03T07:29:06;2.13;;;0.90;;
55300;SDS011;58302;51.446;-2.000;2022-08-03T07:31:33;0.93;;;0.85;;
55300;SDS011;58302;51.446;-2.000;2022-08-03T07:33:59;2.08;;;0.70;;
55300;SDS011;58302;51.446;-2.000;2022-08-03T07:36:25;0.57;;;0.57;;
55300;SDS011;58302;51.446;-2.000;2022-08-03T07:38:51;1.08;;;0.70;;
55300;SDS011;58302;51.446;-2.000;2022-08-03T07:41:17;2.90;;;0.70;;
55300;SDS011;58302;51.446;-2.000;2022-08-03T07:43:43;0.63;;;0.63;;
55300;SDS011;58302;51.446;-2.000;2022-08-03T07:46:09;0.70;;;0.68;;
55300;SDS011;58302;51.446;-2.000;2022-08-03T07:48:35;0.82;;;0.82;;
55300;SDS011;58302;51.446;-2.000;2022-08-03T07:51:01;1.73;;;0.80;;
55300;SDS011;58302;51.446;-2.000;2022-08-03T07:53:28;1.27;;;0.70;;
55300;SDS011;58302;51.446;-2.000;2022-08-03T07:55:54;1.52;;;0.80;;
55300;SDS011;58302;51.446;-2.000;2022-08-03T07:58:21;0.52;;;0.52;;
55300;SDS011;58302;51.446;-2.000;2022-08-03T08:00:48;0.85;;;0.73;;
55300;SDS011;58302;51.446;-2.000;2022-08-03T08:03:15;3.13;;;0.85;;
55300;SDS011;58302;51.446;-2.000;2022-08-03T08:05:41;1.63;;;0.63;;
55300;SDS011;58302;51.446;-2.000;2022-08-03T08:08:08;1.05;;;0.60;;
55300;SDS011;58302;51.446;-2.000;2022-08-03T08:10:34;0.75;;;0.70;;
55300;SDS011;58302;51.446;-2.000;2022-08-03T08:13:00;0.60;;;0.55;;
55300;SDS011;58302;51.446;-2.000;2022-08-03T08:15:27;0.95;;;0.60;;
55300;SDS011;58302;51.446;-2.000;2022-08-03T08:17:54;0.65;;;0.60;;
55300;SDS011;58302;51.446;-2.000;2022-08-03T08:20:24;0.77;;;0.47;;
55300;SDS011;58302;51.446;-2.000;2022-08-03T08:22:55;0.93;;;0.73;;
55300;SDS011;58302;51.446;-2.000;2022-08-03T08:25:22;0.82;;;0.40;;
55300;SDS011;58302;51.446;-2.000;2022-08-03T08:27:48;1.30;;;0.90;;
55300;SDS011;58302;51.446;-2.000;2022-08-03T08:30:16;1.42;;;0.55;;
55300;SDS011;58302;51.446;-2.000;2022-08-03T08:32:46;2.05;;;0.45;;
55300;SDS011;58302;51.446;-2.000;2022-08-03T08:35:13;0.30;;;0.30;;
55300;SDS011;58302;51.446;-2.000;2022-08-03T08:37:39;0.77;;;0.45;;
55300;SDS011;58302;51.446;-2.000;2022-08-03T08:40:06;0.47;;;0.30;;
55300;SDS011;58302;51.446;-2.000;2022-08-03T08:42:35;0.85;;;0.40;;
55300;SDS011;58302;51.446;-2.000;2022-08-03T08:45:04;2.67;;;0.63;;
55300;SDS011;58302;51.446;-2.000;2022-08-03T08:47:31;0.32;;;0.32;;
55300;SDS011;58302;51.446;-2.000;2022-08-03T08:50:01;1.05;;;0.45;;
55300;SDS011;58302;51.446;-2.000;2022-08-03T08:52:27;0.47;;;0.38;;
55300;SDS011;58302;51.446;-2.000;2022-08-03T08:54:59;1.73;;;0.47;;
55300;SDS011;58302;51.446;-2.000;2022-08-03T08:59:55;0.65;;;0.57;;
55300;SDS011;58302;51.446;-2.000;2022-08-03T09:02:22;0.75;;;0.40;;
55300;SDS011;58302;51.446;-2.000;2022-08-03T09:04:49;1.45;;;0.70;;
55300;SDS011;58302;51.446;-2.000;2022-08-03T09:07:16;1.65;;;0.40;;
55300;SDS011;58302;51.446;-2.000;2022-08-03T09:09:42;1.15;;;0.60;;
55300;SDS011;58302;51.446;-2.000;2022-08-03T09:12:08;0.60;;;0.60;;
55300;SDS011;58302;51.446;-2.000;2022-08-03T09:14:34;0.35;;;0.22;;
55300;SDS011;58302;51.446;-2.000;2022-08-03T09:17:01;0.35;;;0.35;;
55300;SDS011;58302;51.446;-2.000;2022-08-03T09:19:28;1.95;;;0.73;;
55300;SDS011;58302;51.446;-2.000;2022-08-03T09:22:29;4.22;;;0.80;;
55300;SDS011;58302;51.446;-2.000;2022-08-03T09:24:57;0.60;;;0.40;;
55300;SDS011;58302;51.446;-2.000;2022-08-03T09:27:25;0.50;;;0.50;;
55300;SDS011;58302;51.446;-2.000;2022-08-03T09:29:51;1.17;;;0.43;;
55300;SDS011;58302;51.446;-2.000;2022-08-03T09:32:22;2.33;;;0.60;;
55300;SDS011;58302;51.446;-2.000;2022-08-03T09:34:50;2.63;;;1.20;;
55300;SDS011;58302;51.446;-2.000;2022-08-03T09:37:18;2.17;;;1.58;;
55300;SDS011;58302;51.446;-2.000;2022-08-03T09:39:46;0.90;;;0.55;;
55300;SDS011;58302;51.446;-2.000;2022-08-03T09:42:13;1.38;;;0.60;;
55300;SDS011;58302;51.446;-2.000;2022-08-03T09:44:47;1.05;;;0.95;;
55300;SDS011;58302;51.446;-2.000;2022-08-03T09:47:15;0.60;;;0.45;;
55300;SDS011;58302;51.446;-2.000;2022-08-03T09:50:00;0.98;;;0.52;;
55300;SDS011;58302;51.446;-2.000;2022-08-03T09:52:33;2.42;;;0.80;;
55300;SDS011;58302;51.446;-2.000;2022-08-03T09:55:02;1.70;;;0.77;;
55300;SDS011;58302;51.446;-2.000;2022-08-03T09:57:33;0.35;;;0.35;;
55300;SDS011;58302;51.446;-2.000;2022-08-03T10:00:05;0.80;;;0.50;;
55300;SDS011;58302;51.446;-2.000;2022-08-03T10:02:34;0.95;;;0.85;;
55300;SDS011;58302;51.446;-2.000;2022-08-03T10:05:01;0.70;;;0.70;;
55300;SDS011;58302;51.446;-2.000;2022-08-03T10:07:27;1.15;;;0.70;;
55300;SDS011;58302;51.446;-2.000;2022-08-03T10:09:57;0.50;;;0.50;;
55300;SDS011;58302;51.446;-2.000;2022-08-03T10:12:25;0.85;;;0.60;;
55300;SDS011;58302;51.446;-2.000;2022-08-03T10:14:51;1.33;;;0.90;;
55300;SDS011;58302;51.446;-2.000;2022-08-03T10:17:18;1.00;;;0.73;;
55300;SDS011;58302;51.446;-2.000;2022-08-03T10:19:45;3.40;;;0.77;;
55300;SDS011;58302;51.446;-2.000;2022-08-03T10:22:13;0.57;;;0.57;;
55300;SDS011;58302;51.446;-2.000;2022-08-03T10:24:48;1.58;;;0.60;;
55300;SDS011;58302;51.446;-2.000;2022-08-03T10:27:18;0.77;;;0.77;;
55300;SDS011;58302;51.446;-2.000;2022-08-03T10:29:46;1.65;;;0.95;;
55300;SDS011;58302;51.446;-2.000;2022-08-03T10:32:30;2.35;;;1.00;;
55300;SDS011;58302;51.446;-2.000;2022-08-03T10:35:07;1.25;;;1.15;;
55300;SDS011;58302;51.446;-2.000;2022-08-03T10:37:40;1.73;;;0.90;;
55300;SDS011;58302;51.446;-2.000;2022-08-03T10:40:13;1.45;;;0.98;;
55300;SDS011;58302;51.446;-2.000;2022-08-03T10:42:44;2.47;;;1.10;;
55300;SDS011;58302;51.446;-2.000;2022-08-03T10:45:18;1.60;;;1.40;;
55300;SDS011;58302;51.446;-2.000;2022-08-03T10:47:46;2.03;;;1.35;;
55300;SDS011;58302;51.446;-2.000;2022-08-03T10:50:13;2.58;;;1.70;;
55300;SDS011;58302;51.446;-2.000;2022-08-03T10:55:32;2.75;;;1.80;;
55300;SDS011;58302;51.446;-2.000;2022-08-03T11:01:03;1.65;;;1.55;;
55300;SDS011;58302;51.446;-2.000;2022-08-03T11:03:30;2.22;;;1.90;;
55300;SDS011;58302;51.446;-2.000;2022-08-03T11:11:37;1.38;;;1.27;;
55300;SDS011;58302;51.446;-2.000;2022-08-03T11:14:06;0.88;;;0.88;;
55300;SDS011;58302;51.446;-2.000;2022-08-03T11:19:02;1.02;;;0.90;;
55300;SDS011;58302;51.446;-2.000;2022-08-03T11:27:18;1.92;;;1.05;;
55300;SDS011;58302;51.446;-2.000;2022-08-03T11:35:25;1.73;;;0.63;;
55300;SDS011;58302;51.446;-2.000;2022-08-03T11:40:46;0.55;;;0.55;;
55300;SDS011;58302;51.446;-2.000;2022-08-03T11:46:02;0.60;;;0.60;;
55300;SDS011;58302;51.446;-2.000;2022-08-03T11:48:37;1.38;;;1.27;;
55300;SDS011;58302;51.446;-2.000;2022-08-03T11:51:18;4.43;;;1.80;;
55300;SDS011;58302;51.446;-2.000;2022-08-03T11:53:44;3.65;;;0.90;;
55300;SDS011;58302;51.446;-2.000;2022-08-03T11:56:12;0.68;;;0.68;;
55300;SDS011;58302;51.446;-2.000;2022-08-03T11:58:45;0.70;;;0.70;;
55300;SDS011;58302;51.446;-2.000;2022-08-03T12:01:13;1.58;;;1.02;;
55300;SDS011;58302;51.446;-2.000;2022-08-03T12:03:41;0.98;;;0.75;;
55300;SDS011;58302;51.446;-2.000;2022-08-03T12:06:08;1.83;;;0.90;;
55300;SDS011;58302;51.446;-2.000;2022-08-03T12:08:35;0.95;;;0.75;;
55300;SDS011;58302;51.446;-2.000;2022-08-03T12:11:02;1.70;;;1.08;;
55300;SDS011;58302;51.446;-2.000;2022-08-03T12:13:38;1.02;;;1.02;;
55300;SDS011;58302;51.446;-2.000;2022-08-03T12:16:06;1.67;;;1.25;;
55300;SDS011;58302;51.446;-2.000;2022-08-03T12:18:32;2.00;;;1.20;;
55300;SDS011;58302;51.446;-2.000;2022-08-03T12:21:04;2.35;;;1.30;;
55300;SDS011;58302;51.446;-2.000;2022-08-03T12:23:35;2.50;;;1.15;;
55300;SDS011;58302;51.446;-2.000;2022-08-03T12:26:07;2.97;;;2.00;;
55300;SDS011;58302;51.446;-2.000;2022-08-03T12:28:34;1.55;;;1.45;;
55300;SDS011;58302;51.446;-2.000;2022-08-03T12:31:02;2.28;;;1.58;;
55300;SDS011;58302;51.446;-2.000;2022-08-03T12:33:31;1.48;;;1.33;;
55300;SDS011;58302;51.446;-2.000;2022-08-03T12:36:17;1.77;;;1.08;;
55300;SDS011;58302;51.446;-2.000;2022-08-03T12:38:44;2.08;;;1.30;;
55300;SDS011;58302;51.446;-2.000;2022-08-03T12:41:25;1.13;;;1.02;;
55300;SDS011;58302;51.446;-2.000;2022-08-03T12:43:52;3.05;;;1.40;;
55300;SDS011;58302;51.446;-2.000;2022-08-03T12:46:19;1.80;;;1.60;;
55300;SDS011;58302;51.446;-2.000;2022-08-03T12:48:58;1.58;;;1.42;;
55300;SDS011;58302;51.446;-2.000;2022-08-03T12:52:16;2.67;;;1.30;;
55300;SDS011;58302;51.446;-2.000;2022-08-03T12:54:18;2.45;;;1.75;;
55300;SDS011;58302;51.446;-2.000;2022-08-03T12:57:07;4.63;;;2.67;;
55300;SDS011;58302;51.446;-2.000;2022-08-03T12:59:39;3.75;;;2.53;;
55300;SDS011;58302;51.446;-2.000;2022-08-03T13:04:42;3.53;;;2.60;;
55300;SDS011;58302;51.446;-2.000;2022-08-03T13:07:10;3.75;;;2.13;;
55300;SDS011;58302;51.446;-2.000;2022-08-03T13:09:40;3.92;;;2.25;;
55300;SDS011;58302;51.446;-2.000;2022-08-03T13:12:17;5.50;;;2.33;;
55300;SDS011;58302;51.446;-2.000;2022-08-03T13:14:52;1.75;;;1.60;;
55300;SDS011;58302;51.446;-2.000;2022-08-03T13:17:21;3.33;;;2.42;;
55300;SDS011;58302;51.446;-2.000;2022-08-03T13:19:48;3.00;;;2.03;;
55300;SDS011;58302;51.446;-2.000;2022-08-03T13:22:16;2.70;;;1.85;;
55300;SDS011;58302;51.446;-2.000;2022-08-03T13:24:47;3.17;;;1.80;;
55300;SDS011;58302;51.446;-2.000;2022-08-03T13:27:15;2.15;;;1.70;;
55300;SDS011;58302;51.446;-2.000;2022-08-03T13:29:43;2.55;;;2.00;;
55300;SDS011;58302;51.446;-2.000;2022-08-03T13:32:09;4.68;;;2.50;;
55300;SDS011;58302;51.446;-2.000;2022-08-03T13:34:35;3.25;;;2.75;;
55300;SDS011;58302;51.446;-2.000;2022-08-03T13:37:02;4.80;;;2.40;;
55300;SDS011;58302;51.446;-2.000;2022-08-03T13:39:28;3.58;;;1.98;;
55300;SDS011;58302;51.446;-2.000;2022-08-03T13:41:54;2.70;;;2.00;;
55300;SDS011;58302;51.446;-2.000;2022-08-03T13:44:21;4.25;;;2.42;;
55300;SDS011;58302;51.446;-2.000;2022-08-03T13:46:48;3.35;;;2.20;;
55300;SDS011;58302;51.446;-2.000;2022-08-03T13:49:14;3.95;;;1.92;;
55300;SDS011;58302;51.446;-2.000;2022-08-03T13:51:40;4.28;;;2.10;;
55300;SDS011;58302;51.446;-2.000;2022-08-03T13:54:07;2.55;;;1.98;;
55300;SDS011;58302;51.446;-2.000;2022-08-03T13:56:33;4.57;;;2.10;;
55300;SDS011;58302;51.446;-2.000;2022-08-03T13:58:59;1.42;;;1.20;;
55300;SDS011;58302;51.446;-2.000;2022-08-03T14:01:25;2.90;;;1.77;;
55300;SDS011;58302;51.446;-2.000;2022-08-03T14:03:52;4.03;;;1.85;;
55300;SDS011;58302;51.446;-2.000;2022-08-03T14:06:21;4.55;;;1.60;;
55300;SDS011;58302;51.446;-2.000;2022-08-03T14:08:48;1.90;;;1.33;;
55300;SDS011;58302;51.446;-2.000;2022-08-03T14:11:15;2.30;;;1.40;;
55300;SDS011;58302;51.446;-2.000;2022-08-03T14:13:41;2.72;;;1.60;;
55300;SDS011;58302;51.446;-2.000;2022-08-03T14:16:08;2.08;;;1.20;;
55300;SDS011;58302;51.446;-2.000;2022-08-03T14:18:34;2.53;;;1.63;;
55300;SDS011;58302;51.446;-2.000;2022-08-03T14:21:01;2.88;;;1.48;;
55300;SDS011;58302;51.446;-2.000;2022-08-03T14:23:29;5.55;;;2.25;;
55300;SDS011;58302;51.446;-2.000;2022-08-03T14:26:00;2.95;;;1.85;;
55300;SDS011;58302;51.446;-2.000;2022-08-03T14:28:26;4.70;;;2.10;;
55300;SDS011;58302;51.446;-2.000;2022-08-03T14:30:53;3.78;;;1.98;;
55300;SDS011;58302;51.446;-2.000;2022-08-03T14:33:22;3.83;;;2.22;;
55300;SDS011;58302;51.446;-2.000;2022-08-03T14:35:49;3.42;;;1.65;;
55300;SDS011;58302;51.446;-2.000;2022-08-03T14:38:16;4.75;;;1.98;;
55300;SDS011;58302;51.446;-2.000;2022-08-03T14:40:42;1.95;;;1.20;;
55300;SDS011;58302;51.446;-2.000;2022-08-03T14:43:09;4.10;;;2.28;;
55300;SDS011;58302;51.446;-2.000;2022-08-03T14:45:35;3.72;;;2.15;;
55300;SDS011;58302;51.446;-2.000;2022-08-03T14:48:01;2.60;;;2.30;;
55300;SDS011;58302;51.446;-2.000;2022-08-03T14:50:28;3.13;;;1.85;;
55300;SDS011;58302;51.446;-2.000;2022-08-03T14:52:54;2.10;;;1.50;;
55300;SDS011;58302;51.446;-2.000;2022-08-03T14:55:20;3.72;;;2.20;;
55300;SDS011;58302;51.446;-2.000;2022-08-03T14:57:46;2.38;;;1.75;;
55300;SDS011;58302;51.446;-2.000;2022-08-03T15:00:12;2.85;;;1.90;;
55300;SDS011;58302;51.446;-2.000;2022-08-03T15:02:39;2.38;;;1.63;;
55300;SDS011;58302;51.446;-2.000;2022-08-03T15:05:05;2.90;;;2.00;;
55300;SDS011;58302;51.446;-2.000;2022-08-03T15:07:32;3.55;;;1.83;;
55300;SDS011;58302;51.446;-2.000;2022-08-03T15:09:58;3.40;;;1.65;;
55300;SDS011;58302;51.446;-2.000;2022-08-03T15:12:24;3.45;;;1.65;;
55300;SDS011;58302;51.446;-2.000;2022-08-03T15:14:50;3.45;;;1.73;;
55300;SDS011;58302;51.446;-2.000;2022-08-03T15:17:16;2.33;;;1.83;;
55300;SDS011;58302;51.446;-2.000;2022-08-03T15:19:42;1.67;;;1.42;;
55300;SDS011;58302;51.446;-2.000;2022-08-03T15:22:08;2.03;;;1.40;;
55300;SDS011;58302;51.446;-2.000;2022-08-03T15:24:34;2.95;;;1.65;;
55300;SDS011;58302;51.446;-2.000;2022-08-03T15:27:00;3.40;;;1.75;;
55300;SDS011;58302;51.446;-2.000;2022-08-03T15:29:26;6.18;;;2.20;;
55300;SDS011;58302;51.446;-2.000;2022-08-03T15:31:52;2.42;;;1.35;;
55300;SDS011;58302;51.446;-2.000;2022-08-03T15:34:18;4.15;;;1.70;;
55300;SDS011;58302;51.446;-2.000;2022-08-03T15:36:44;2.83;;;1.55;;
55300;SDS011;58302;51.446;-2.000;2022-08-03T15:39:10;3.17;;;1.70;;
55300;SDS011;58302;51.446;-2.000;2022-08-03T15:41:36;2.78;;;1.50;;